Time;durP1;ratioP1;P1;durP2;ratioP2;P2;SDS_P1;SDS_P2;PMS_P1;PMS_P2;Temp;Humidity;BMP_temperature;BMP_pressure;BME280_temperature;BME280_humidity;BME280_pressure;Samples;Min_cycle;Max_cycle;Signal;HPM_P1;HPM_P2
2021/04/12 00:00:29;;;;;;;3.47;2.47;;;;;;;21.77;50.26;101525.41;1649555;85;21635;-59
2021/04/12 00:03:06;;;;;;;2.37;1.77;;;;;;;21.76;50.23;101526.56;1657334;85;21578;-59
2021/04/12 00:05:44;;;;;;;2.92;2.20;;;;;;;21.76;50.20;101534.04;1659810;85;22905;-59
2021/04/12 00:08:35;;;;;;;2.62;2.22;;;;;;;21.73;50.20;101534.63;1650261;85;21261;-59
2021/04/12 00:11:30;;;;;;;3.95;2.52;;;;;;;21.70;50.25;101527.77;1649601;85;21161;-59
2021/04/12 00:14:03;;;;;;;4.42;3.02;;;;;;;21.66;50.29;101538.39;1658607;85;21644;-59
2021/04/12 00:16:35;;;;;;;2.83;2.35;;;;;;;21.61;50.35;101532.38;1654674;85;21233;-59
2021/04/12 00:19:26;;;;;;;3.87;2.77;;;;;;;21.57;50.43;101528.59;1621909;85;21766;-59
2021/04/12 00:22:04;;;;;;;2.83;2.22;;;;;;;21.53;50.50;101523.41;1655430;85;25821;-59
2021/04/12 00:24:38;;;;;;;3.10;2.70;;;;;;;21.50;50.58;101528.74;1653579;85;21590;-59
2021/04/12 00:27:22;;;;;;;3.87;2.83;;;;;;;21.47;50.63;101527.42;1624442;86;21648;-59
2021/04/12 00:30:18;;;;;;;3.58;2.60;;;;;;;21.45;50.65;101519.97;1657684;85;21208;-60
2021/04/12 00:33:14;;;;;;;4.25;3.00;;;;;;;21.44;50.66;101512.78;1652661;85;21281;-60
2021/04/12 00:35:52;;;;;;;3.42;2.70;;;;;;;21.42;50.67;101512.28;1736282;81;21261;-60
2021/04/12 00:38:54;;;;;;;3.65;2.70;;;;;;;21.38;50.71;101503.78;1732638;81;21182;-60
2021/04/12 00:42:08;;;;;;;3.52;2.72;;;;;;;21.36;50.77;101496.89;1731798;81;21245;-59
2021/04/12 00:45:24;;;;;;;4.62;3.10;;;;;;;21.30;50.81;101486.47;1733290;81;21425;-60
2021/04/12 00:48:24;;;;;;;3.50;3.10;;;;;;;21.24;50.83;101484.11;1743084;81;21225;-60
2021/04/12 00:51:16;;;;;;;4.15;2.77;;;;;;;21.18;50.92;101483.38;1738646;81;21158;-60
2021/04/12 00:54:07;;;;;;;2.65;2.17;;;;;;;21.14;51.00;101480.14;1737147;81;21153;-60
2021/04/12 00:56:49;;;;;;;2.98;2.17;;;;;;;21.14;51.07;101474.61;1741936;81;21229;-60
2021/04/12 00:59:33;;;;;;;3.52;2.70;;;;;;;21.18;51.11;101479.23;1720611;81;21134;-60
2021/04/12 01:02:34;;;;;;;2.98;2.37;;;;;;;21.22;51.14;101477.48;1705177;82;23628;-60
2021/04/12 01:05:24;;;;;;;3.58;2.72;;;;;;;21.28;51.15;101474.90;1699368;82;21802;-60
2021/04/12 01:08:21;;;;;;;3.30;2.75;;;;;;;21.35;51.13;101478.63;1677212;83;21156;-61
2021/04/12 01:11:16;;;;;;;3.25;2.50;;;;;;;21.40;51.15;101481.30;1732291;81;21147;-60
2021/04/12 01:14:25;;;;;;;3.40;2.58;;;;;;;21.45;51.14;101483.16;1732461;81;21230;-60
2021/04/12 01:17:12;;;;;;;3.12;2.42;;;;;;;21.48;51.16;101484.73;1735054;80;21257;-60
2021/04/12 01:20:29;;;;;;;3.95;2.70;;;;;;;21.52;51.15;101486.33;1730601;81;21229;-59
2021/04/12 01:23:50;;;;;;;3.15;2.10;;;;;;;21.55;51.14;101489.89;1693498;82;21166;-59
2021/04/12 01:26:49;;;;;;;;;;;;;;;21.60;51.18;101490.58;1738903;81;21202;-59
2021/04/12 01:29:36;;;;;;;2.42;1.80;;;;;;;21.68;51.19;101487.13;1730846;81;20223;-60
2021/04/12 01:32:42;;;;;;;3.08;2.27;;;;;;;21.74;51.11;101483.66;1734609;81;22384;-60
2021/04/12 01:35:38;;;;;;;2.37;2.15;;;;;;;21.77;51.03;101481.09;1731666;81;21285;-60
2021/04/12 01:38:33;;;;;;;3.27;2.52;;;;;;;21.79;51.00;101476.07;1721782;81;21178;-60
2021/04/12 01:41:32;;;;;;;4.33;2.67;;;;;;;21.79;50.91;101480.23;1732685;81;21048;-59
2021/04/12 01:44:21;;;;;;;3.52;2.52;;;;;;;21.78;50.86;101480.53;1736403;81;21147;-59
2021/04/12 01:46:53;;;;;;;2.92;2.52;;;;;;;21.76;50.86;101479.47;1725851;81;21189;-60
2021/04/12 01:50:01;;;;;;;3.20;2.90;;;;;;;21.72;50.91;101475.68;1735492;81;21432;-60
2021/04/12 01:52:52;;;;;;;3.20;2.55;;;;;;;21.71;50.93;101469.05;1736852;81;21194;-60
2021/04/12 01:55:57;;;;;;;3.08;2.40;;;;;;;21.66;50.98;101467.21;1729155;81;21103;-60
2021/04/12 01:59:02;;;;;;;3.12;2.10;;;;;;;21.66;51.00;101466.38;1733159;81;21618;-60
2021/04/12 02:01:52;;;;;;;3.52;2.10;;;;;;;21.66;50.99;101468.59;1675856;83;21835;-60
2021/04/12 02:04:39;;;;;;;3.10;2.57;;;;;;;21.65;50.99;101460.58;1677025;84;21184;-60
2021/04/12 02:07:35;;;;;;;4.17;2.90;;;;;;;21.61;51.00;101456.80;1675664;84;21226;-59
2021/04/12 02:10:16;;;;;;;3.42;2.70;;;;;;;21.58;51.06;101453.27;1667505;84;21160;-60
2021/04/12 02:13:00;;;;;;;4.78;3.10;;;;;;;21.53;51.13;101455.58;1678760;84;21212;-60
2021/04/12 02:16:07;;;;;;;3.22;2.92;;;;;;;21.49;51.19;101453.16;1677660;84;21586;-60
2021/04/12 02:18:54;;;;;;;4.22;2.90;;;;;;;21.44;51.28;101449.11;1674772;84;21201;-60
2021/04/12 02:21:46;;;;;;;4.17;3.27;;;;;;;21.38;51.32;101448.98;1676081;84;21141;-60
2021/04/12 02:24:36;;;;;;;3.85;2.80;;;;;;;21.35;51.38;101446.80;1678280;84;21279;-60
2021/04/12 02:27:14;;;;;;;3.92;3.22;;;;;;;21.30;51.43;101438.03;1678846;84;21222;-59
2021/04/12 02:29:56;;;;;;;4.17;3.02;;;;;;;21.29;51.44;101436.97;1675208;84;21618;-60
2021/04/12 02:32:50;;;;;;;3.45;2.92;;;;;;;21.27;51.47;101436.45;1677719;84;21218;-59
2021/04/12 02:35:37;;;;;;;3.62;3.10;;;;;;;21.24;51.48;101430.15;1681701;84;21149;-61
2021/04/12 02:38:24;;;;;;;3.87;2.90;;;;;;;21.21;51.52;101426.06;1677589;84;21165;-61
2021/04/12 02:41:32;;;;;;;4.35;2.95;;;;;;;21.18;51.58;101428.59;1673284;84;21173;-61
2021/04/12 02:44:50;;;;;;;4.20;3.02;;;;;;;21.14;51.62;101428.39;1675122;84;21419;-61
2021/04/12 02:47:51;;;;;;;4.58;2.35;;;;;;;21.12;51.64;101418.73;1640200;85;21612;-59
2021/04/12 02:51:00;;;;;;;4.15;2.02;;;;;;;21.11;51.70;101422.06;1640635;85;21272;-60
2021/04/12 02:53:38;;;;;;;3.58;2.62;;;;;;;21.12;51.75;101411.82;1669268;84;21238;-60
2021/04/12 02:56:45;;;;;;;3.50;2.62;;;;;;;21.22;51.72;101422.70;1675224;84;21591;-60
2021/04/12 02:59:58;;;;;;;3.58;2.52;;;;;;;21.28;51.71;101419.55;1675893;84;21322;-60
2021/04/12 03:02:54;;;;;;;3.40;2.47;;;;;;;21.33;51.68;101418.06;1673162;84;21169;-60
2021/04/12 03:05:53;;;;;;;3.85;2.40;;;;;;;21.39;51.66;101427.06;1673131;84;21240;-61
2021/04/12 03:08:38;;;;;;;3.75;2.58;;;;;;;21.43;51.64;101421.75;1675783;84;21219;-60
2021/04/12 03:11:47;;;;;;;3.50;2.55;;;;;;;21.46;51.62;101415.03;1675573;84;21204;-60
2021/04/12 03:14:34;;;;;;;3.55;3.00;;;;;;;21.49;51.64;101413.02;1639005;84;21254;-60
2021/04/12 03:17:33;;;;;;;2.75;2.27;;;;;;;21.53;51.62;101415.42;1678889;84;21191;-60
2021/04/12 03:20:43;;;;;;;3.05;2.27;;;;;;;21.58;51.67;101408.96;1675379;84;21250;-60
2021/04/12 03:23:32;;;;;;;4.37;2.37;;;;;;;21.62;51.64;101401.11;1675205;84;21233;-60
2021/04/12 03:26:35;;;;;;;3.15;2.50;;;;;;;21.68;51.58;101399.06;1676622;84;21136;-60
2021/04/12 03:29:19;;;;;;;3.77;2.60;;;;;;;21.72;51.55;101400.08;1622632;86;21273;-58
2021/04/12 03:32:24;;;;;;;3.75;2.60;;;;;;;21.76;51.49;101409.41;1679631;84;21183;-59
2021/04/12 03:35:33;;;;;;;3.02;2.33;;;;;;;21.78;51.47;101396.05;1678776;84;21212;-59
2021/04/12 03:38:28;;;;;;;3.45;2.47;;;;;;;21.80;51.44;101408.47;1678122;84;21206;-60
2021/04/12 03:41:27;;;;;;;3.15;2.50;;;;;;;21.80;51.38;101400.73;1670254;84;21535;-60
2021/04/12 03:44:12;;;;;;;3.37;2.67;;;;;;;21.77;51.35;101399.94;1674138;84;21303;-60
2021/04/12 03:47:19;;;;;;;4.40;2.77;;;;;;;21.75;51.33;101398.06;1675978;84;21592;-60
2021/04/12 03:50:02;;;;;;;3.67;2.40;;;;;;;21.72;51.35;101389.83;1676149;84;21212;-60
2021/04/12 03:52:49;;;;;;;2.72;2.15;;;;;;;21.74;51.36;101395.03;1674629;84;21573;-60
2021/04/12 03:55:22;;;;;;;3.45;2.33;;;;;;;21.75;51.35;101395.30;1678363;84;21191;-60
2021/04/12 03:58:26;;;;;;;2.77;2.20;;;;;;;21.74;51.33;101398.63;1676148;84;21577;-60
2021/04/12 04:01:33;;;;;;;4.30;2.35;;;;;;;21.73;51.34;101396.16;1676407;84;21161;-60
2021/04/12 04:04:18;;;;;;;3.98;2.85;;;;;;;21.70;51.37;101404.53;1687788;83;21216;-59
2021/04/12 04:07:08;;;;;;;4.30;2.67;;;;;;;21.65;51.40;101402.43;1685792;83;21630;-60
2021/04/12 04:09:52;;;;;;;3.47;2.60;;;;;;;21.58;51.46;101398.71;1686768;83;21164;-60
2021/04/12 04:12:54;;;;;;;4.25;2.58;;;;;;;21.57;51.50;101395.68;1685862;83;22959;-60
2021/04/12 04:15:39;;;;;;;4.45;2.67;;;;;;;21.57;51.52;101396.23;1656323;83;21210;-60
2021/04/12 04:18:29;;;;;;;3.17;2.27;;;;;;;21.57;51.54;101406.75;1686275;83;21196;-60
2021/04/12 04:21:21;;;;;;;4.28;2.58;;;;;;;21.62;51.61;101401.11;1686520;83;21169;-60
2021/04/12 04:24:33;;;;;;;4.15;2.37;;;;;;;21.71;51.64;101403.97;1687422;83;21205;-60
2021/04/12 04:27:48;;;;;;;5.53;2.90;;;;;;;21.77;51.61;101396.61;1686458;83;22299;-59
2021/04/12 04:30:46;;;;;;;3.20;2.42;;;;;;;21.82;51.54;101397.06;1640397;86;21778;-61
2021/04/12 04:33:55;;;;;;;7.85;4.75;;;;;;;21.88;51.50;101401.37;1687484;83;21275;-65
2021/04/12 04:37:13;;;;;;;11.83;8.30;;;;;;;21.91;51.36;101399.35;1685250;83;21222;-64
2021/04/12 04:40:16;;;;;;;14.30;9.35;;;;;;;21.80;49.88;101394.62;1685211;83;21628;-64
2021/04/12 04:43:22;;;;;;;16.62;9.13;;;;;;;21.62;48.40;101395.58;1685790;83;21414;-64
2021/04/12 04:46:23;;;;;;;13.30;7.95;;;;;;;21.48;47.26;101400.30;1679863;83;21267;-59
2021/04/12 04:49:44;;;;;;;13.00;7.50;;;;;;;21.32;46.36;101402.58;1658608;85;21264;-59
2021/04/12 04:52:17;;;;;;;20.90;9.40;;;;;;;21.22;45.94;101400.56;1653897;85;21284;-61
2021/04/12 04:55:09;;;;;;;19.65;9.53;;;;;;;21.21;45.63;101401.72;1632670;86;21162;-61
2021/04/12 04:58:22;;;;;;;14.10;8.23;;;;;;;21.22;45.31;101400.00;1655595;85;22881;-61
2021/04/12 05:01:11;;;;;;;12.45;8.25;;;;;;;21.24;45.02;101401.09;1635593;85;21198;-61
2021/04/12 05:04:36;;;;;;;13.08;8.35;;;;;;;21.24;44.65;101405.24;1651409;85;21163;-59
2021/04/12 05:07:42;;;;;;;18.60;8.40;;;;;;;21.22;44.35;101405.54;1645734;85;21272;-63
2021/04/12 05:11:02;;;;;;;9.95;5.92;;;;;;;21.21;44.10;101398.95;1648163;85;21637;-63
2021/04/12 05:13:57;;;;;;;10.17;6.10;;;;;;;21.24;44.20;101405.24;1648345;85;21215;-63
2021/04/12 05:16:47;;;;;;;9.98;6.17;;;;;;;21.30;44.27;101398.48;1647213;85;21222;-63
2021/04/12 05:19:51;;;;;;;9.30;5.30;;;;;;;21.37;44.24;101396.12;1649807;85;21610;-64
2021/04/12 05:22:38;;;;;;;12.88;5.58;;;;;;;21.48;44.23;101387.02;1649961;85;21288;-63
2021/04/12 05:25:29;;;;;;;12.68;6.75;;;;;;;21.58;44.23;101385.42;1650058;85;21175;-64
2021/04/12 05:28:24;;;;;;;9.50;5.10;;;;;;;21.67;44.20;101383.01;1648573;85;21412;-62
2021/04/12 05:31:11;;;;;;;13.62;8.38;;;;;;;21.72;44.22;101382.90;1645821;85;21228;-63
2021/04/12 05:33:59;;;;;;;8.45;5.12;;;;;;;21.78;44.27;101378.87;1648450;85;21248;-64
2021/04/12 05:37:14;;;;;;;7.55;4.55;;;;;;;21.83;44.34;101380.14;1645384;85;21272;-64
2021/04/12 05:40:37;;;;;;;11.38;5.03;;;;;;;21.87;44.39;101374.23;1724776;81;21238;-66
2021/04/12 05:43:23;;;;;;;7.30;5.15;;;;;;;21.91;44.50;101381.34;1727491;81;20981;-67
2021/04/12 05:46:17;;;;;;;7.28;4.80;;;;;;;21.92;44.59;101384.94;1688358;83;21243;-64
2021/04/12 05:49:33;;;;;;;6.05;4.45;;;;;;;21.93;44.71;101384.66;1650507;85;21653;-65
2021/04/12 05:52:30;;;;;;;7.03;4.62;;;;;;;21.95;44.81;101378.80;1686902;83;21227;-65
2021/04/12 05:55:49;;;;;;;8.40;5.10;;;;;;;21.95;44.90;101376.84;1647663;85;21298;-64
2021/04/12 05:58:58;;;;;;;6.03;4.50;;;;;;;21.97;45.01;101376.55;1652686;85;21802;-66
2021/04/12 06:02:05;;;;;;;6.87;4.90;;;;;;;21.98;45.10;101376.21;1646202;85;21624;-66
2021/04/12 06:05:20;;;;;;;6.30;4.53;;;;;;;22.03;45.17;101375.27;1855656;75;24007;-66
2021/04/12 06:08:18;;;;;;;7.03;4.87;;;;;;;21.99;45.17;101373.70;1833844;77;21356;-66
2021/04/12 06:11:29;;;;;;;7.30;4.65;;;;;;;21.98;45.22;101366.52;1800850;77;21220;-65
2021/04/12 06:14:42;;;;;;;6.17;4.35;;;;;;;21.98;45.22;101366.52;1834243;77;21179;-65
2021/04/12 06:17:58;;;;;;;7.12;4.65;;;;;;;21.99;45.22;101364.56;1830996;77;21045;-65
2021/04/12 06:20:41;;;;;;;8.60;4.72;;;;;;;21.98;45.21;101365.72;1835884;77;21210;-65
2021/04/12 06:23:34;;;;;;;7.00;4.00;;;;;;;21.98;45.17;101366.52;1806769;77;21131;-65
2021/04/12 06:26:34;;;;;;;5.15;3.75;;;;;;;21.99;45.18;101360.41;1832385;77;23527;-66
2021/04/12 06:29:30;;;;;;;7.83;4.33;;;;;;;22.03;45.19;101361.42;1830832;77;21161;-66
2021/04/12 06:32:31;;;;;;;5.03;3.90;;;;;;;22.06;45.19;101371.33;1832646;76;21031;-65
2021/04/12 06:35:20;;;;;;;10.60;5.12;;;;;;;22.08;45.16;101374.59;1837310;77;21470;-64
2021/04/12 06:38:02;;;;;;;7.75;3.80;;;;;;;22.11;45.16;101365.64;1839344;76;21524;-62
2021/04/12 06:41:08;;;;;;;5.55;4.08;;;;;;;22.12;45.14;101360.36;1829959;77;21660;-62
2021/04/12 06:44:30;;;;;;;6.33;4.03;;;;;;;22.09;45.12;101370.70;1835601;76;21210;-61
2021/04/12 06:47:08;;;;;;;5.62;3.67;;;;;;;22.04;45.18;101368.05;1831488;77;21192;-61
2021/04/12 06:50:16;;;;;;;7.28;4.08;;;;;;;21.98;45.21;101364.34;1825487;77;21197;-61
2021/04/12 06:53:26;;;;;;;6.12;3.65;;;;;;;21.94;45.26;101368.87;1829400;77;21162;-61
2021/04/12 06:56:02;;;;;;;5.85;3.92;;;;;;;21.90;45.30;101369.20;1784202;78;21252;-61
2021/04/12 06:59:16;;;;;;;5.30;4.10;;;;;;;21.85;45.35;101368.77;1792514;78;21227;-61
2021/04/12 07:02:17;;;;;;;5.45;3.60;;;;;;;21.81;45.37;101358.84;1778053;78;21035;-61
2021/04/12 07:05:02;;;;;;;;;;;;;;;21.77;45.43;101363.38;1778982;79;21617;-61
2021/04/12 07:08:05;;;;;;;4.62;3.22;;;;;;;21.74;45.48;101361.23;1781063;79;20296;-61
2021/04/12 07:10:46;;;;;;;5.87;3.55;;;;;;;21.72;45.53;101364.08;1783618;79;21215;-61
2021/04/12 07:13:53;;;;;;;6.33;3.47;;;;;;;21.70;45.55;101360.78;1775185;79;21931;-61
2021/04/12 07:16:37;;;;;;;6.37;3.45;;;;;;;21.68;45.59;101358.91;1774645;79;21170;-61
2021/04/12 07:19:18;;;;;;;5.10;3.42;;;;;;;21.65;45.61;101354.80;1782202;79;21174;-61
2021/04/12 07:22:14;;;;;;;6.33;3.40;;;;;;;21.63;45.64;101351.53;1776043;78;21221;-61
2021/04/12 07:25:21;;;;;;;6.67;3.40;;;;;;;21.60;45.66;101352.13;1783767;79;21224;-61
2021/04/12 07:28:19;;;;;;;5.10;3.12;;;;;;;21.59;45.68;101351.08;1771427;79;21221;-61
2021/04/12 07:31:16;;;;;;;4.72;3.20;;;;;;;21.56;45.71;101348.91;1784131;79;21240;-62
2021/04/12 07:34:17;;;;;;;5.05;3.45;;;;;;;21.54;45.71;101352.01;1772772;79;21252;-62
2021/04/12 07:37:13;;;;;;;4.67;2.85;;;;;;;21.54;45.76;101347.03;1701179;82;21211;-61
2021/04/12 07:44:01;;;;;;;5.37;3.20;;;;;;;21.52;45.76;101338.20;1705293;83;21265;-61
2021/04/12 07:47:02;;;;;;;4.60;3.20;;;;;;;21.49;45.74;101329.14;1665523;84;21233;-61
2021/04/12 07:50:04;;;;;;;5.87;3.22;;;;;;;21.46;45.72;101333.37;1697267;82;21183;-61
2021/04/12 07:53:08;;;;;;;5.03;2.95;;;;;;;21.45;45.69;101335.05;1694494;82;21224;-61
2021/04/12 07:56:17;;;;;;;4.62;2.80;;;;;;;21.41;45.67;101332.91;1674384;84;21274;-61
2021/04/12 07:59:41;;;;;;;6.12;3.45;;;;;;;21.38;45.63;101330.77;1664567;83;21153;-61
2021/04/12 08:02:46;;;;;;;5.05;3.55;;;;;;;21.36;45.59;101325.27;1686751;82;21607;-61
2021/04/12 08:05:36;;;;;;;3.92;2.80;;;;;;;21.32;45.55;101326.46;1706695;82;21241;-61
2021/04/12 08:08:43;;;;;;;5.27;3.47;;;;;;;21.28;45.51;101324.63;1704066;82;21291;-61
2021/04/12 08:11:42;;;;;;;5.08;3.42;;;;;;;21.25;45.49;101326.08;1703628;82;21425;-61
2021/04/12 08:14:54;;;;;;;5.35;3.60;;;;;;;21.21;45.47;101328.38;1687927;82;21178;-61
2021/04/12 08:17:35;;;;;;;5.87;3.45;;;;;;;21.18;45.45;101324.83;1695728;82;21264;-61
2021/04/12 08:20:38;;;;;;;3.75;2.65;;;;;;;21.15;45.44;101328.22;1701991;82;21265;-61
2021/04/12 08:24:01;;;;;;;6.62;3.33;;;;;;;21.11;45.46;101323.84;1692047;82;21249;-61
2021/04/12 08:27:26;;;;;;;4.70;3.00;;;;;;;21.08;45.46;101324.47;1789060;78;21258;-61
2021/04/12 08:30:23;;;;;;;5.90;3.65;;;;;;;21.05;45.46;101322.89;1793709;78;21994;-62
2021/04/12 08:33:11;;;;;;;4.12;2.58;;;;;;;21.03;45.45;101318.21;1784680;78;21634;-62
2021/04/12 08:36:05;;;;;;;3.92;2.80;;;;;;;21.07;45.44;101312.31;1787050;78;21236;-62
2021/04/12 08:39:09;;;;;;;6.03;3.12;;;;;;;21.09;45.47;101311.45;1766937;79;21211;-62
2021/04/12 08:41:56;;;;;;;3.25;2.50;;;;;;;21.12;45.47;101303.91;1786306;78;21233;-62
2021/04/12 08:44:42;;;;;;;3.60;2.42;;;;;;;21.16;45.46;101303.58;1705104;81;21198;-62
2021/04/12 08:47:32;;;;;;;4.12;2.33;;;;;;;21.18;45.45;101301.30;1767182;79;21256;-61
2021/04/12 08:50:32;;;;;;;3.30;2.43;;;;;;;21.21;45.48;101300.71;1710368;82;21239;-59
2021/04/12 08:53:42;;;;;;;6.33;2.90;;;;;;;21.23;45.48;101300.64;1702058;83;21217;-61
2021/04/12 08:56:40;;;;;;;4.23;2.83;;;;;;;21.25;45.46;101295.63;1714483;81;21273;-60
2021/04/12 08:59:43;;;;;;;3.87;2.15;;;;;;;21.27;45.46;101288.38;1721756;82;21916;-59
2021/04/12 09:02:58;;;;;;;3.22;2.30;;;;;;;21.28;45.45;101287.26;1626785;86;21284;-60
2021/04/12 09:06:09;;;;;;;3.75;2.30;;;;;;;21.34;45.44;101290.97;1933476;72;22754;-61
2021/04/12 09:09:21;;;;;;;4.58;2.58;;;;;;;21.29;45.44;101294.44;1903762;74;21097;-61
2021/04/12 09:12:24;;;;;;;4.30;2.30;;;;;;;21.28;45.44;101283.11;1900136;74;21180;-61
2021/04/12 09:15:15;;;;;;;5.05;2.22;;;;;;;21.27;45.43;101283.67;1835937;77;21256;-61
2021/04/12 09:18:24;;;;;;;3.85;2.58;;;;;;;21.27;45.44;101278.70;1901601;74;21751;-61
2021/04/12 09:21:11;;;;;;;5.47;2.67;;;;;;;21.26;45.43;101279.84;1904758;74;21135;-60
2021/04/12 09:24:11;;;;;;;3.25;2.40;;;;;;;21.24;45.39;101278.77;1904527;74;21181;-61
2021/04/12 09:27:24;;;;;;;3.47;2.60;;;;;;;21.25;45.38;101269.91;1908593;74;21197;-61
2021/04/12 09:30:21;;;;;;;3.67;2.60;;;;;;;21.22;45.34;101268.56;1901661;74;21031;-61
2021/04/12 09:33:21;;;;;;;3.62;2.22;;;;;;;21.21;45.30;101257.81;1898132;74;21212;-61
2021/04/12 09:36:36;;;;;;;3.95;2.70;;;;;;;21.20;45.29;101253.41;1900599;73;21366;-60
2021/04/12 09:39:39;;;;;;;4.17;2.30;;;;;;;21.19;45.27;101253.14;1902066;74;21738;-61
2021/04/12 09:42:47;;;;;;;4.03;2.33;;;;;;;21.20;45.26;101245.93;1853696;75;21569;-60
2021/04/12 09:45:36;;;;;;;4.22;2.60;;;;;;;21.21;45.22;101251.72;1903049;74;21137;-61
2021/04/12 09:48:39;;;;;;;3.87;2.47;;;;;;;21.22;45.20;101240.06;1908463;74;21137;-61
2021/04/12 09:51:24;;;;;;;6.15;2.55;;;;;;;21.24;45.19;101239.20;1867376;74;21593;-62
2021/04/12 09:54:32;;;;;;;3.75;2.47;;;;;;;21.24;45.12;101232.28;1897900;74;21221;-62
2021/04/12 09:57:37;;;;;;;3.95;2.40;;;;;;;21.25;45.11;101227.83;1901501;74;22155;-61
2021/04/12 10:00:41;;;;;;;3.02;2.50;;;;;;;21.24;45.05;101215.68;1902425;74;21850;-62
2021/04/12 10:03:19;;;;;;;3.55;2.50;;;;;;;21.24;44.99;101210.14;1901348;74;21725;-62
2021/04/12 10:06:18;;;;;;;4.00;2.67;;;;;;;21.23;44.96;101213.47;1903326;73;21608;-61
2021/04/12 10:09:28;;;;;;;3.50;2.35;;;;;;;21.24;44.93;101204.05;1863336;74;21157;-61
2021/04/12 10:12:18;;;;;;;5.62;3.05;;;;;;;21.24;44.89;101204.05;1862621;75;22833;-61
2021/04/12 10:15:02;;;;;;;3.70;2.35;;;;;;;21.23;44.85;101196.87;1858591;75;21189;-60
2021/04/12 10:17:40;;;;;;;4.67;2.92;;;;;;;21.27;44.82;101191.52;1863819;75;21510;-60
2021/04/12 10:20:30;;;;;;;3.08;2.27;;;;;;;21.33;44.77;101192.49;1853423;75;20932;-62
2021/04/12 10:23:00;;;;;;;3.98;2.77;;;;;;;21.30;44.76;101182.62;1827136;77;21194;-61
2021/04/12 10:25:39;;;;;;;3.92;2.67;;;;;;;21.31;44.71;101179.52;1829743;77;23524;-60
2021/04/12 10:28:40;;;;;;;3.62;2.50;;;;;;;21.31;44.70;101179.52;1823484;77;21070;-61
2021/04/12 10:31:26;;;;;;;;;;;;;;;21.32;44.68;101170.66;1833136;77;21243;-61
2021/04/12 10:34:08;;;;;;;3.35;2.20;;;;;;;21.29;44.68;101165.19;1833844;76;20352;-61
2021/04/12 10:37:07;;;;;;;3.77;2.33;;;;;;;21.29;44.68;101166.58;1821037;77;21206;-62
2021/04/12 10:40:01;;;;;;;4.17;2.70;;;;;;;21.31;44.65;101164.86;1776816;79;21187;-61
2021/04/12 10:42:36;;;;;;;4.47;2.72;;;;;;;21.32;44.64;101161.78;1782063;80;21486;-62
2021/04/12 10:45:33;;;;;;;3.85;2.62;;;;;;;21.33;44.63;101162.61;1778997;78;21044;-62
2021/04/12 10:48:05;;;;;;;3.30;2.52;;;;;;;21.35;44.59;101163.09;1756855;80;21597;-62
2021/04/12 10:50:55;;;;;;;3.60;2.33;;;;;;;21.38;44.60;101156.95;1765525;79;21209;-62
2021/04/12 10:54:02;;;;;;;3.37;2.30;;;;;;;21.42;44.57;101157.96;1768576;79;22306;-62
2021/04/12 10:56:34;;;;;;;3.80;2.50;;;;;;;21.45;44.54;101143.48;1770948;79;21404;-62
2021/04/12 10:59:21;;;;;;;3.22;2.27;;;;;;;21.48;44.50;101144.23;1766543;79;21044;-62
2021/04/12 11:02:12;;;;;;;4.22;2.40;;;;;;;21.50;44.47;101153.05;1770102;79;21628;-62
2021/04/12 11:05:03;;;;;;;3.22;2.42;;;;;;;21.53;44.46;101150.20;1777230;79;21240;-61
2021/04/12 11:07:51;;;;;;;5.42;2.72;;;;;;;21.54;44.44;101154.05;1764129;79;21283;-61
2021/04/12 11:10:45;;;;;;;4.35;2.60;;;;;;;21.57;44.44;101158.13;1767574;79;21648;-62
2021/04/12 11:13:41;;;;;;;3.70;2.45;;;;;;;21.58;44.39;101147.31;1774368;79;21202;-61
2021/04/12 11:16:16;;;;;;;4.42;2.50;;;;;;;21.60;44.38;101136.75;1778985;79;21193;-62
2021/04/12 11:19:08;;;;;;;3.87;2.22;;;;;;;21.61;44.37;101136.42;1768024;79;21194;-62
2021/04/12 11:21:46;;;;;;;4.72;2.75;;;;;;;21.63;44.36;101140.27;1740315;79;21427;-61
2021/04/12 11:24:45;;;;;;;3.58;2.52;;;;;;;21.65;44.34;101139.36;1724751;79;21013;-62
2021/04/12 11:28:00;;;;;;;3.12;2.25;;;;;;;21.67;44.31;101135.73;1755283;79;21191;-62
2021/04/12 11:30:57;;;;;;;3.67;2.42;;;;;;;21.70;44.29;101129.55;1756922;79;21198;-61
2021/04/12 11:33:44;;;;;;;3.77;2.62;;;;;;;21.69;44.25;101120.41;1755228;80;21165;-61
2021/04/12 11:36:43;;;;;;;3.50;2.17;;;;;;;21.70;44.24;101122.06;1754518;79;21348;-60
2021/04/12 11:39:25;;;;;;;3.60;2.22;;;;;;;21.71;44.22;101114.57;1652588;84;21280;-61
2021/04/12 11:42:01;;;;;;;2.90;2.02;;;;;;;21.72;44.22;101112.06;1654001;84;21660;-61
2021/04/12 11:44:47;;;;;;;2.35;1.92;;;;;;;21.74;44.21;101105.63;1653150;84;21222;-61
2021/04/12 11:47:29;;;;;;;2.85;2.00;;;;;;;21.75;44.19;101095.62;1653109;84;21243;-61
2021/04/12 11:50:24;;;;;;;3.05;1.70;;;;;;;21.77;44.19;101096.66;1654321;84;21799;-62
2021/04/12 11:53:23;;;;;;;2.92;2.02;;;;;;;21.81;44.20;101097.70;1658104;84;21448;-61
2021/04/12 11:56:19;;;;;;;4.08;2.67;;;;;;;21.82;44.17;101094.58;1650608;84;21425;-61
2021/04/12 11:58:50;;;;;;;2.95;1.98;;;;;;;21.84;44.15;101092.33;1608704;86;21235;-61
2021/04/12 12:01:34;;;;;;;3.95;2.70;;;;;;;21.86;44.11;101090.60;1657763;84;21256;-62
2021/04/12 12:04:27;;;;;;;2.70;2.25;;;;;;;21.88;44.07;101092.50;1633595;86;21708;-63
2021/04/12 12:07:44;;;;;;;3.58;2.20;;;;;;;21.91;43.97;101088.27;1625536;86;21208;-62
2021/04/12 12:10:39;;;;;;;2.55;1.87;;;;;;;21.94;43.89;101082.14;1628498;86;21182;-62
2021/04/12 12:13:43;;;;;;;3.62;2.42;;;;;;;21.95;43.83;101074.88;1658339;84;21857;-60
2021/04/12 12:16:21;;;;;;;3.25;1.87;;;;;;;21.97;43.78;101066.25;1654622;84;21162;-61
2021/04/12 12:19:24;;;;;;;3.00;2.10;;;;;;;21.99;43.71;101068.94;1657859;84;21947;-62
2021/04/12 12:22:31;;;;;;;3.37;2.02;;;;;;;22.03;43.67;101067.72;1660263;84;21580;-62
2021/04/12 12:25:09;;;;;;;2.05;1.80;;;;;;;22.05;43.64;101069.05;1656341;84;21543;-61
2021/04/12 12:27:41;;;;;;;1.82;1.42;;;;;;;22.07;43.61;101063.98;1655932;84;22032;-60
2021/04/12 12:30:35;;;;;;;2.80;1.87;;;;;;;22.10;43.57;101055.05;1656668;84;21638;-61
2021/04/12 12:33:39;;;;;;;3.50;2.10;;;;;;;22.18;43.53;101056.21;1855227;75;23000;-61
2021/04/12 12:36:23;;;;;;;2.42;1.80;;;;;;;22.14;43.55;101049.11;1825390;77;21314;-62
2021/04/12 12:39:19;;;;;;;2.95;2.30;;;;;;;22.16;43.50;101044.05;1830091;77;22151;-61
2021/04/12 12:41:46;;;;;;;2.83;1.70;;;;;;;22.20;43.46;101042.27;1829646;77;21505;-62
2021/04/12 12:44:16;;;;;;;3.22;1.90;;;;;;;22.22;43.44;101042.77;1827537;77;21525;-62
2021/04/12 12:46:43;;;;;;;2.90;1.82;;;;;;;22.25;43.43;101036.58;1831035;77;21188;-61
2021/04/12 12:49:29;;;;;;;3.15;2.10;;;;;;;22.28;43.40;101041.46;1827743;77;21036;-62
2021/04/12 12:52:01;;;;;;;2.58;1.65;;;;;;;22.31;43.32;101030.32;1831856;77;21234;-61
2021/04/12 12:54:45;;;;;;;2.52;1.72;;;;;;;22.34;43.25;101026.89;1831544;77;21431;-62
2021/04/12 12:57:23;;;;;;;2.40;1.57;;;;;;;22.38;43.21;101024.28;1831304;77;21062;-61
2021/04/12 12:59:52;;;;;;;2.60;1.70;;;;;;;22.40;43.16;101023.41;1794004;78;21141;-61
2021/04/12 13:02:33;;;;;;;2.62;1.90;;;;;;;22.43;43.12;101013.86;1793629;78;21130;-61
2021/04/12 13:05:26;;;;;;;2.37;1.80;;;;;;;22.46;43.06;101015.16;1789034;78;21456;-61
2021/04/12 13:08:09;;;;;;;2.92;2.10;;;;;;;22.47;43.04;101012.06;1776825;79;21253;-61
2021/04/12 13:10:44;;;;;;;2.17;1.80;;;;;;;22.52;42.95;101011.09;1778643;79;21443;-61
2021/04/12 13:13:25;;;;;;;3.27;1.90;;;;;;;22.53;42.87;101001.64;1780748;79;21162;-62
2021/04/12 13:15:52;;;;;;;;;;;;;;;22.55;42.78;101002.94;1777033;79;21549;-63
2021/04/12 13:18:29;;;;;;;2.12;1.55;;;;;;;22.58;42.72;100998.68;1774175;79;21661;-62
2021/04/12 13:21:23;;;;;;;2.60;1.80;;;;;;;22.58;42.71;101000.88;1798193;79;21149;-62
2021/04/12 13:23:54;;;;;;;1.77;1.60;;;;;;;22.61;42.67;100988.34;1769528;79;21138;-62
2021/04/12 13:26:36;;;;;;;2.12;1.60;;;;;;;22.62;42.61;100986.61;1773799;80;21166;-63
2021/04/12 13:29:24;;;;;;;3.27;1.70;;;;;;;22.65;42.59;100992.91;1764635;79;21190;-62
2021/04/12 13:31:56;;;;;;;3.30;1.90;;;;;;;22.66;42.55;100983.42;1797711;78;21584;-63
2021/04/12 13:34:41;;;;;;;3.22;1.90;;;;;;;22.67;42.52;100980.91;1777748;78;21193;-62
2021/04/12 13:37:37;;;;;;;3.02;1.75;;;;;;;22.70;42.49;100980.87;1782107;79;21182;-62